Time;durP1;ratioP1;P1;durP2;ratioP2;P2;SDS_P1;SDS_P2;PMS_P1;PMS_P2;Temp;Humidity;BMP_temperature;BMP_pressure;BME280_temperature;BME280_humidity;BME280_pressure;Samples;Min_cycle;Max_cycle;Signal;HPM_P1;HPM_P2
2021/07/01 00:01:58;;;;;;;1999.90;999.90;;;13.20;99.90;;;;;;5074161;28;20218;-42
2021/07/01 00:04:25;;;;;;;1999.90;999.90;;;13.30;99.90;;;;;;5073908;28;20260;-40
2021/07/01 00:06:52;;;;;;;1999.90;999.90;;;13.30;99.90;;;;;;5074248;28;20631;-41
2021/07/01 00:09:22;;;;;;;1999.90;999.90;;;13.30;99.90;;;;;;5073967;28;20169;-42
2021/07/01 00:11:52;;;;;;;1999.90;999.90;;;13.30;99.90;;;;;;5073735;28;20165;-43
2021/07/01 00:14:19;;;;;;;1999.90;999.90;;;13.30;99.90;;;;;;5074104;28;20180;-46
2021/07/01 00:16:51;;;;;;;1999.90;999.90;;;13.30;99.90;;;;;;5073878;28;20212;-43
2021/07/01 00:19:18;;;;;;;1999.90;999.90;;;13.20;99.90;;;;;;5073950;28;20210;-42
2021/07/01 00:21:45;;;;;;;1999.90;999.90;;;13.20;99.90;;;;;;5073282;28;20261;-42
2021/07/01 00:24:13;;;;;;;1999.90;999.90;;;13.20;99.90;;;;;;5073868;28;20649;-42
2021/07/01 00:26:39;;;;;;;1999.90;999.90;;;13.20;99.90;;;;;;5073868;28;20172;-42
2021/07/01 00:29:06;;;;;;;1999.90;999.90;;;13.10;99.90;;;;;;5073871;28;20251;-42
2021/07/01 00:31:33;;;;;;;1999.90;999.90;;;13.10;99.90;;;;;;5073717;28;20173;-42
2021/07/01 00:34:01;;;;;;;1999.90;999.90;;;13.10;99.90;;;;;;5073762;28;20176;-43
2021/07/01 00:36:28;;;;;;;1999.90;999.90;;;13.10;99.90;;;;;;5073520;28;20230;-42
2021/07/01 00:38:55;;;;;;;1999.90;999.90;;;13.10;99.90;;;;;;5073472;28;20178;-45
2021/07/01 00:41:22;;;;;;;1999.90;999.90;;;13.10;99.90;;;;;;5073711;28;20641;-42
2021/07/01 00:43:49;;;;;;;1999.90;999.90;;;13.20;99.90;;;;;;5073513;28;20234;-42
2021/07/01 00:46:16;;;;;;;1999.90;999.90;;;13.20;99.90;;;;;;5073195;28;20655;-42
2021/07/01 00:48:43;;;;;;;1999.90;999.90;;;13.20;99.90;;;;;;5073694;28;20168;-44
2021/07/01 00:51:10;;;;;;;1999.90;999.90;;;13.30;99.90;;;;;;5073276;28;20170;-45
2021/07/01 00:53:37;;;;;;;1999.90;999.90;;;13.30;99.90;;;;;;5073284;28;20164;-41
2021/07/01 00:56:05;;;;;;;1999.90;999.90;;;13.20;99.90;;;;;;5073504;28;20169;-42
2021/07/01 00:58:33;;;;;;;1999.90;999.90;;;13.30;99.90;;;;;;5072780;28;20177;-41
2021/07/01 01:01:04;;;;;;;1999.90;999.90;;;13.20;99.90;;;;;;5073136;28;20165;-42
2021/07/01 01:03:36;;;;;;;1999.90;999.90;;;13.20;99.90;;;;;;5073395;28;20152;-42
2021/07/01 01:06:07;;;;;;;1999.90;999.90;;;13.30;99.90;;;;;;5072866;28;20168;-41
2021/07/01 01:08:34;;;;;;;1999.90;999.90;;;13.20;99.90;;;;;;5073057;28;20149;-42
2021/07/01 01:11:02;;;;;;;1999.90;999.90;;;13.20;99.90;;;;;;5072873;28;20215;-42
2021/07/01 01:13:29;;;;;;;1999.90;999.90;;;13.20;99.90;;;;;;5072857;28;20631;-42
2021/07/01 01:15:58;;;;;;;1999.90;999.90;;;13.30;99.90;;;;;;5072729;28;20207;-47
2021/07/01 01:18:25;;;;;;;1999.90;999.90;;;13.20;99.90;;;;;;5072803;28;20176;-42
2021/07/01 01:20:54;;;;;;;1999.90;999.90;;;13.20;99.90;;;;;;5072437;28;20176;-41
2021/07/01 01:23:21;;;;;;;1999.90;999.90;;;13.30;99.90;;;;;;5073051;28;20650;-41
2021/07/01 01:25:50;;;;;;;1999.90;999.90;;;13.30;99.90;;;;;;5054644;28;20169;-42
2021/07/01 01:28:18;;;;;;;1999.90;999.90;;;13.20;99.90;;;;;;5072425;28;20175;-43
2021/07/01 01:30:45;;;;;;;1999.90;999.90;;;13.30;99.90;;;;;;5072771;28;20177;-45
2021/07/01 01:33:12;;;;;;;1999.90;999.90;;;13.30;99.90;;;;;;5054548;28;20183;-44
2021/07/01 01:35:40;;;;;;;1999.90;999.90;;;13.30;99.90;;;;;;5072423;28;20252;-42
2021/07/01 01:38:11;;;;;;;1999.90;999.90;;;13.30;99.90;;;;;;5072602;28;20207;-42
2021/07/01 01:40:40;;;;;;;1999.90;999.90;;;13.40;99.90;;;;;;5072323;28;20164;-47
2021/07/01 01:43:07;;;;;;;1999.90;999.90;;;13.30;99.90;;;;;;5072358;28;20199;-41
2021/07/01 01:45:37;;;;;;;1999.90;999.90;;;13.30;99.90;;;;;;5070990;28;20693;-41
2021/07/01 01:48:04;;;;;;;1999.90;999.90;;;13.30;99.90;;;;;;5072153;28;20153;-42
2021/07/01 01:50:32;;;;;;;1999.90;999.90;;;13.30;99.90;;;;;;5072214;28;20666;-43
2021/07/01 01:52:58;;;;;;;1999.90;999.90;;;13.30;99.90;;;;;;5072219;28;20173;-42
2021/07/01 01:55:25;;;;;;;1999.90;999.90;;;13.30;99.90;;;;;;5071946;28;20652;-42
2021/07/01 01:57:53;;;;;;;1999.90;999.90;;;13.30;99.90;;;;;;5072349;28;20223;-42
2021/07/01 02:00:21;;;;;;;1999.90;999.90;;;13.30;99.90;;;;;;5071849;28;20165;-45
2021/07/01 02:02:49;;;;;;;1999.90;999.90;;;13.30;99.90;;;;;;5072060;28;20176;-42
2021/07/01 02:05:16;;;;;;;1999.90;999.90;;;13.30;99.90;;;;;;5072395;28;20248;-42
2021/07/01 02:07:43;;;;;;;1999.90;999.90;;;13.30;99.90;;;;;;5072022;28;20624;-42
2021/07/01 02:10:13;;;;;;;1999.90;999.90;;;13.30;99.90;;;;;;5071635;28;20216;-42
2021/07/01 02:12:40;;;;;;;1999.90;999.90;;;13.30;99.90;;;;;;5071852;28;20172;-43
2021/07/01 02:15:12;;;;;;;1999.90;999.90;;;13.30;99.90;;;;;;5071748;28;20168;-47
2021/07/01 02:17:39;;;;;;;1999.90;999.90;;;13.30;99.90;;;;;;5071695;28;20211;-42
2021/07/01 02:20:10;;;;;;;1999.90;999.90;;;13.30;99.90;;;;;;5071754;28;20161;-42
2021/07/01 02:22:37;;;;;;;1999.90;999.90;;;13.30;99.90;;;;;;5071599;28;20168;-41
2021/07/01 02:25:05;;;;;;;1999.90;999.90;;;13.40;99.90;;;;;;5071834;28;20156;-42
2021/07/01 02:27:32;;;;;;;1999.90;999.90;;;13.40;99.90;;;;;;5071596;28;20177;-44
2021/07/01 02:29:59;;;;;;;1999.90;999.90;;;13.40;99.90;;;;;;5071434;28;20168;-42
2021/07/01 02:32:26;;;;;;;1999.90;999.90;;;13.40;99.90;;;;;;5071876;28;20173;-42
2021/07/01 02:34:53;;;;;;;1999.90;999.90;;;13.40;99.90;;;;;;5071385;28;20199;-42
2021/07/01 02:37:20;;;;;;;1999.90;999.90;;;13.30;99.90;;;;;;5071310;28;20200;-42
2021/07/01 02:39:47;;;;;;;1999.90;999.90;;;13.30;99.90;;;;;;5071884;28;20251;-48
2021/07/01 02:42:13;;;;;;;1999.90;999.90;;;13.30;99.90;;;;;;5071740;28;20204;-43
2021/07/01 02:44:40;;;;;;;1999.90;999.90;;;13.40;99.90;;;;;;5070929;28;20183;-42
2021/07/01 02:47:07;;;;;;;1999.90;999.90;;;13.30;99.90;;;;;;5071529;28;20214;-42
2021/07/01 02:49:34;;;;;;;1999.90;999.90;;;13.30;99.90;;;;;;5071309;28;20157;-47
2021/07/01 02:52:01;;;;;;;1999.90;999.90;;;13.40;99.90;;;;;;5071301;28;20309;-41
2021/07/01 02:54:28;;;;;;;1999.90;999.90;;;13.40;99.90;;;;;;5071290;28;20683;-44
2021/07/01 02:56:55;;;;;;;1999.90;999.90;;;13.30;99.90;;;;;;5071152;28;20200;-42
2021/07/01 02:59:22;;;;;;;1999.90;999.90;;;13.30;99.90;;;;;;5071306;28;20179;-42
2021/07/01 03:01:50;;;;;;;1999.90;999.90;;;13.30;99.90;;;;;;5071542;28;20164;-43
2021/07/01 03:04:17;;;;;;;1999.90;999.90;;;13.20;99.90;;;;;;5071155;28;20635;-48
2021/07/01 03:06:45;;;;;;;1999.90;999.90;;;13.10;99.90;;;;;;5071348;28;20172;-42
2021/07/01 03:09:11;;;;;;;1999.90;999.90;;;13.10;99.90;;;;;;5071050;28;20183;-46
2021/07/01 03:11:39;;;;;;;1999.90;999.90;;;13.10;99.90;;;;;;5070980;28;20641;-45
2021/07/01 03:14:07;;;;;;;1999.90;999.90;;;13.20;99.90;;;;;;5071509;28;20169;-42
2021/07/01 03:16:34;;;;;;;1999.90;999.90;;;13.20;99.90;;;;;;5069358;28;20200;-42
2021/07/01 03:19:02;;;;;;;1999.90;999.90;;;13.30;99.90;;;;;;5071289;28;20260;-42
2021/07/01 03:21:29;;;;;;;1999.90;999.90;;;13.30;99.90;;;;;;5071338;28;20164;-47
2021/07/01 03:23:56;;;;;;;1999.90;999.90;;;13.20;99.90;;;;;;5070968;28;20161;-43
2021/07/01 03:26:23;;;;;;;1999.90;999.90;;;13.30;99.90;;;;;;5071167;28;20160;-44
2021/07/01 03:28:49;;;;;;;1999.90;999.90;;;13.30;99.90;;;;;;5071050;28;20704;-50
2021/07/01 03:31:16;;;;;;;1999.90;999.90;;;13.30;99.90;;;;;;5071093;28;20638;-42
2021/07/01 03:33:43;;;;;;;1999.90;999.90;;;13.30;99.90;;;;;;5070848;28;20172;-41
2021/07/01 03:36:10;;;;;;;1999.90;999.90;;;13.20;99.90;;;;;;5070988;28;20761;-42
2021/07/01 03:38:37;;;;;;;1999.90;999.90;;;13.20;99.90;;;;;;5070717;28;20168;-41
2021/07/01 03:41:07;;;;;;;1999.90;999.90;;;13.10;99.90;;;;;;5071103;28;20173;-47
2021/07/01 03:43:40;;;;;;;1999.90;999.90;;;13.10;99.90;;;;;;5070778;28;20708;-41
2021/07/01 03:46:08;;;;;;;1999.90;999.90;;;13.00;99.90;;;;;;5070611;28;20573;-45
2021/07/01 03:48:35;;;;;;;1999.90;999.90;;;13.00;99.90;;;;;;5071086;28;20226;-43
2021/07/01 03:51:04;;;;;;;1999.90;999.90;;;12.90;99.90;;;;;;5052509;28;20180;-42
2021/07/01 03:53:32;;;;;;;1999.90;999.90;;;12.90;99.90;;;;;;5070724;28;20252;-43
2021/07/01 03:55:59;;;;;;;1999.90;999.90;;;12.80;99.90;;;;;;5072185;28;20187;-41
2021/07/01 03:58:26;;;;;;;1999.90;999.90;;;12.80;99.90;;;;;;5074286;28;20191;-42
2021/07/01 04:00:53;;;;;;;1999.90;999.90;;;12.70;99.90;;;;;;5074287;28;20172;-42
2021/07/01 04:03:20;;;;;;;1999.90;999.90;;;12.70;99.90;;;;;;5074179;28;20191;-48
2021/07/01 04:05:47;;;;;;;1999.90;999.90;;;12.60;99.90;;;;;;5074195;28;20222;-43
2021/07/01 04:08:14;;;;;;;1999.90;999.90;;;12.60;99.90;;;;;;5073931;28;20521;-46
2021/07/01 04:10:40;;;;;;;1999.90;999.90;;;12.60;99.90;;;;;;5073732;28;20311;-42
2021/07/01 04:13:07;;;;;;;1999.90;999.90;;;12.50;99.90;;;;;;5073759;28;20629;-46
2021/07/01 04:15:34;;;;;;;1999.90;999.90;;;12.50;99.90;;;;;;5074277;28;20189;-47
2021/07/01 04:18:08;;;;;;;1999.90;999.90;;;12.50;99.90;;;;;;5073643;28;20208;-42
2021/07/01 04:20:35;;;;;;;1999.90;999.90;;;12.50;99.90;;;;;;5073618;28;20188;-41
2021/07/01 04:23:02;;;;;;;1999.90;999.90;;;12.60;99.90;;;;;;5073931;28;20357;-43
2021/07/01 04:25:29;;;;;;;1999.90;999.90;;;12.50;99.90;;;;;;5074133;28;20192;-46
2021/07/01 04:27:55;;;;;;;1999.90;999.90;;;12.50;99.90;;;;;;5073657;28;20619;-47
2021/07/01 04:30:22;;;;;;;1999.90;999.90;;;12.60;99.90;;;;;;5073837;28;20487;-42
2021/07/01 04:32:49;;;;;;;1999.90;999.90;;;12.60;99.90;;;;;;5073573;28;20533;-44
2021/07/01 04:35:16;;;;;;;1999.90;999.90;;;12.60;99.90;;;;;;5073726;28;20180;-48
2021/07/01 04:37:43;;;;;;;1999.90;999.90;;;12.60;99.90;;;;;;5074019;28;20662;-43
2021/07/01 04:40:10;;;;;;;1999.90;999.90;;;12.60;99.90;;;;;;5073597;28;20176;-42
2021/07/01 04:42:37;;;;;;;1999.90;999.90;;;12.60;99.90;;;;;;5073508;28;20172;-42
2021/07/01 04:45:06;;;;;;;1999.90;999.90;;;12.70;99.90;;;;;;5073490;28;20157;-42
2021/07/01 04:47:33;;;;;;;1999.90;999.90;;;12.70;99.90;;;;;;5073174;28;20540;-42
2021/07/01 04:50:02;;;;;;;1999.90;999.90;;;12.70;99.90;;;;;;5074091;28;20242;-48
2021/07/01 04:52:29;;;;;;;1999.90;999.90;;;12.70;99.90;;;;;;5073012;28;20176;-45
2021/07/01 04:54:56;;;;;;;1999.90;999.90;;;12.70;99.90;;;;;;5073039;28;20183;-42
2021/07/01 04:57:22;;;;;;;1999.90;999.90;;;12.70;99.90;;;;;;5073566;28;20204;-45
2021/07/01 04:59:49;;;;;;;1999.90;999.90;;;12.80;99.90;;;;;;5073017;28;20187;-44
2021/07/01 05:02:16;;;;;;;1999.90;999.90;;;12.80;99.90;;;;;;5072953;28;20173;-42
2021/07/01 05:04:43;;;;;;;1999.90;999.90;;;12.80;99.90;;;;;;5073027;28;20627;-43
2021/07/01 05:07:09;;;;;;;1999.90;999.90;;;12.80;99.90;;;;;;5072477;28;20623;-46
2021/07/01 05:09:36;;;;;;;1999.90;999.90;;;12.90;99.90;;;;;;5072943;28;20573;-46
2021/07/01 05:12:03;;;;;;;1999.90;999.90;;;13.00;99.90;;;;;;5072624;28;20243;-43
2021/07/01 05:14:30;;;;;;;1999.90;999.90;;;13.00;99.90;;;;;;5072612;28;20175;-44
2021/07/01 05:16:57;;;;;;;1999.90;999.90;;;13.00;99.90;;;;;;5072478;28;20208;-48
2021/07/01 05:19:23;;;;;;;1999.90;999.90;;;13.00;99.90;;;;;;5072633;28;20658;-42
2021/07/01 05:21:50;;;;;;;1999.90;999.90;;;13.00;99.90;;;;;;5072538;28;20169;-44
2021/07/01 05:24:17;;;;;;;1999.90;999.90;;;13.00;99.90;;;;;;5072482;28;20623;-43
2021/07/01 05:26:43;;;;;;;1999.90;999.90;;;13.00;99.90;;;;;;5071994;28;20183;-44
2021/07/01 05:29:10;;;;;;;1999.90;999.90;;;13.00;99.90;;;;;;5072252;28;20173;-43
2021/07/01 05:31:37;;;;;;;1999.90;999.90;;;13.00;99.90;;;;;;5071875;28;20263;-43
2021/07/01 05:34:04;;;;;;;1999.90;999.90;;;13.00;99.90;;;;;;5071742;28;20172;-43
2021/07/01 05:36:31;;;;;;;1999.90;999.90;;;13.00;99.90;;;;;;5072399;28;20230;-43
2021/07/01 05:38:58;;;;;;;1999.90;999.90;;;13.00;99.90;;;;;;5071890;28;20175;-44
2021/07/01 05:41:24;;;;;;;1999.90;999.90;;;13.00;99.90;;;;;;5071807;28;20172;-49
2021/07/01 05:43:51;;;;;;;1999.90;999.90;;;12.90;99.90;;;;;;5072214;28;20521;-49
2021/07/01 05:46:18;;;;;;;1999.90;999.90;;;12.90;99.90;;;;;;5071278;28;20636;-43
2021/07/01 05:48:45;;;;;;;1999.90;999.90;;;12.90;99.90;;;;;;5071860;28;20160;-45
2021/07/01 05:51:14;;;;;;;1999.90;999.90;;;12.90;99.90;;;;;;5053917;28;20267;-45
2021/07/01 05:54:10;;;;;;;1999.90;999.90;;;12.90;99.90;;;;;;5071465;28;20171;-47
2021/07/01 05:56:36;;;;;;;1999.90;999.90;;;12.90;99.90;;;;;;5070337;28;20678;-43
2021/07/01 05:59:06;;;;;;;1999.90;999.90;;;12.90;99.90;;;;;;5071483;28;20156;-43
2021/07/01 06:01:33;;;;;;;1999.90;999.90;;;12.90;99.90;;;;;;5071161;28;20172;-47
2021/07/01 06:04:02;;;;;;;1999.90;999.90;;;12.90;99.90;;;;;;5071404;28;20180;-44
2021/07/01 06:06:29;;;;;;;1999.90;999.90;;;12.90;99.90;;;;;;5053015;28;20183;-51
2021/07/01 06:08:58;;;;;;;1999.90;999.90;;;13.00;99.90;;;;;;5071024;28;20164;-47
2021/07/01 06:11:26;;;;;;;1999.90;999.90;;;13.10;99.90;;;;;;5071424;28;20231;-46
2021/07/01 06:13:54;;;;;;;1999.90;999.90;;;13.20;99.90;;;;;;5070977;28;20165;-45
2021/07/01 06:16:24;;;;;;;1999.90;999.90;;;13.40;99.90;;;;;;5070882;28;20180;-46
2021/07/01 06:18:51;;;;;;;1999.90;999.90;;;13.80;99.90;;;;;;5070596;28;20188;-45
2021/07/01 06:21:18;;;;;;;1999.90;999.90;;;14.20;99.90;;;;;;5071144;28;20672;-49
2021/07/01 06:23:47;;;;;;;1999.90;999.90;;;14.40;99.90;;;;;;5071183;28;20248;-43
2021/07/01 06:26:15;;;;;;;1999.90;999.90;;;14.70;99.90;;;;;;5070913;28;20168;-49
2021/07/01 06:28:43;;;;;;;1999.90;999.90;;;14.10;99.90;;;;;;5070534;28;20541;-44
2021/07/01 06:31:11;;;;;;;1999.90;999.90;;;13.70;99.90;;;;;;5067472;28;20263;-47
2021/07/01 06:33:42;;;;;;;1999.90;999.90;;;13.50;99.90;;;;;;5070549;28;20615;-43
2021/07/01 06:36:12;;;;;;;1999.90;999.90;;;13.60;99.90;;;;;;5070383;28;20168;-44
2021/07/01 06:38:45;;;;;;;1999.90;999.90;;;13.50;99.90;;;;;;5070898;28;20180;-45
2021/07/01 06:41:14;;;;;;;1999.90;999.90;;;13.60;99.90;;;;;;5070628;28;20176;-49
2021/07/01 06:43:45;;;;;;;1999.90;999.90;;;13.90;99.90;;;;;;5070335;28;20196;-43
2021/07/01 06:46:13;;;;;;;1999.90;999.90;;;13.90;99.90;;;;;;5071077;28;20157;-45
2021/07/01 06:48:41;;;;;;;1999.90;999.90;;;13.90;99.90;;;;;;5070183;28;20161;-45
2021/07/01 06:51:08;;;;;;;1999.90;999.90;;;13.80;99.90;;;;;;5070582;28;20189;-40
2021/07/01 06:53:37;;;;;;;1999.90;999.90;;;13.70;99.90;;;;;;5070192;28;20199;-40
2021/07/01 06:56:04;;;;;;;1999.90;999.90;;;13.80;99.90;;;;;;5070319;28;20176;-42
2021/07/01 06:58:32;;;;;;;1999.90;999.90;;;13.90;99.90;;;;;;5052624;28;20212;-42
2021/07/01 07:00:59;;;;;;;1999.90;999.90;;;13.80;99.90;;;;;;5070277;28;20635;-44
2021/07/01 07:03:26;;;;;;;1999.90;999.90;;;13.80;99.90;;;;;;5070299;28;20173;-44
2021/07/01 07:05:54;;;;;;;1999.90;999.90;;;13.80;99.90;;;;;;5070563;28;20162;-44
2021/07/01 07:08:22;;;;;;;1999.90;999.90;;;13.70;99.90;;;;;;5070113;28;20179;-57
2021/07/01 07:10:50;;;;;;;1999.90;999.90;;;13.70;99.90;;;;;;5070034;28;20625;-57
2021/07/01 07:13:24;;;;;;;1999.90;999.90;;;13.80;99.90;;;;;;5070431;28;20238;-57
2021/07/01 07:15:53;;;;;;;1999.90;999.90;;;13.90;99.90;;;;;;5070068;28;20188;-53
2021/07/01 07:18:25;;;;;;;1999.90;999.90;;;14.10;99.90;;;;;;5069979;28;20196;-51
2021/07/01 07:21:01;;;;;;;1999.90;999.90;;;14.20;99.90;;;;;;5070228;28;20248;-45
2021/07/01 07:23:33;;;;;;;1999.90;999.90;;;14.10;99.90;;;;;;5069173;28;20183;-51
2021/07/01 07:26:21;;;;;;;1999.90;999.90;;;14.20;99.90;;;;;;5069996;28;20157;-48
2021/07/01 07:28:56;;;;;;;1999.90;999.90;;;14.30;99.90;;;;;;5070150;28;20172;-51
2021/07/01 07:31:28;;;;;;;1999.90;999.90;;;14.50;99.90;;;;;;5073815;28;20235;-56
2021/07/01 07:33:56;;;;;;;1999.90;999.90;;;14.70;99.90;;;;;;5074770;28;20167;-47
2021/07/01 07:36:25;;;;;;;1999.90;999.90;;;14.70;99.90;;;;;;5074039;28;20177;-53
2021/07/01 07:38:53;;;;;;;1999.90;999.90;;;14.70;99.90;;;;;;5073664;28;20172;-52
2021/07/01 07:41:21;;;;;;;1999.90;999.90;;;14.70;99.90;;;;;;5074251;28;20168;-44
2021/07/01 07:43:49;;;;;;;1999.90;999.90;;;14.90;99.90;;;;;;5073784;28;20168;-45
2021/07/01 07:46:20;;;;;;;1999.90;999.90;;;15.20;99.90;;;;;;5073934;28;20250;-51
2021/07/01 07:48:48;;;;;;;1999.90;999.90;;;15.20;99.90;;;;;;5073959;28;20164;-52
2021/07/01 07:51:20;;;;;;;1999.90;999.90;;;15.40;99.90;;;;;;5073918;28;20241;-47
2021/07/01 07:53:51;;;;;;;1999.90;999.90;;;15.40;99.90;;;;;;5074080;28;20165;-50
2021/07/01 07:56:25;;;;;;;1999.90;999.90;;;15.50;99.90;;;;;;5074017;28;20165;-50
2021/07/01 07:58:56;;;;;;;1999.90;999.90;;;15.70;99.90;;;;;;5073442;28;20174;-58
2021/07/01 08:01:23;;;;;;;1999.90;999.90;;;15.50;99.90;;;;;;5073890;28;20183;-58
2021/07/01 08:03:54;;;;;;;1999.90;999.90;;;15.70;99.90;;;;;;5073238;28;20176;-54
2021/07/01 08:06:25;;;;;;;1999.90;999.90;;;15.90;99.90;;;;;;5073635;28;20930;-47
2021/07/01 08:08:53;;;;;;;1999.90;999.90;;;16.00;99.90;;;;;;5073543;28;20223;-50
2021/07/01 08:11:23;;;;;;;1999.90;999.90;;;16.00;99.90;;;;;;5073204;28;20252;-45
2021/07/01 08:13:58;;;;;;;1999.90;999.90;;;15.90;99.90;;;;;;5056108;28;20203;-46
2021/07/01 08:16:25;;;;;;;1999.90;999.90;;;15.80;99.90;;;;;;5073184;28;20615;-45
2021/07/01 08:18:52;;;;;;;1999.90;999.90;;;15.60;99.90;;;;;;5073297;28;20248;-51
2021/07/01 08:21:19;;;;;;;1999.90;999.90;;;15.50;99.90;;;;;;5073370;28;20164;-44
2021/07/01 08:23:47;;;;;;;1999.90;999.90;;;15.50;99.90;;;;;;5073012;28;20190;-49
2021/07/01 08:26:15;;;;;;;1999.90;999.90;;;15.50;99.90;;;;;;5072757;28;20199;-56
2021/07/01 08:28:42;;;;;;;1999.90;999.90;;;15.50;99.90;;;;;;5073333;28;20171;-47
2021/07/01 08:31:17;;;;;;;1999.90;999.90;;;15.40;99.90;;;;;;5072858;28;20196;-47
2021/07/01 08:33:49;;;;;;;1999.90;999.90;;;15.70;99.90;;;;;;5072943;28;20164;-54
2021/07/01 08:36:21;;;;;;;1999.90;999.90;;;15.70;99.90;;;;;;5073088;28;20244;-47
2021/07/01 08:38:54;;;;;;;1999.90;999.90;;;15.70;99.90;;;;;;5072785;28;20259;-56
2021/07/01 08:41:27;;;;;;;1999.90;999.90;;;15.60;99.90;;;;;;5072536;28;20185;-59
2021/07/01 08:43:56;;;;;;;1999.90;999.90;;;15.60;99.90;;;;;;5073203;28;20167;-50
2021/07/01 08:46:38;;;;;;;1999.90;999.90;;;15.80;99.90;;;;;;5072561;28;20195;-47
2021/07/01 08:49:08;;;;;;;1999.90;999.90;;;15.90;99.90;;;;;;5073349;28;20164;-49
2021/07/01 08:51:46;;;;;;;1999.90;999.90;;;16.10;99.90;;;;;;5073533;28;20613;-53
2021/07/01 08:54:24;;;;;;;1999.90;999.90;;;15.80;99.90;;;;;;5072785;28;20164;-50
2021/07/01 08:56:55;;;;;;;1999.90;999.90;;;16.00;99.90;;;;;;5072809;28;20208;-52
2021/07/01 08:59:25;;;;;;;1999.90;999.90;;;15.50;99.90;;;;;;5072805;28;20654;-45
2021/07/01 09:02:00;;;;;;;1999.90;999.90;;;15.30;99.90;;;;;;5072737;28;20623;-49
2021/07/01 09:04:31;;;;;;;1999.90;999.90;;;15.20;99.90;;;;;;5072431;28;20495;-45
2021/07/01 09:07:05;;;;;;;1999.90;999.90;;;15.20;99.90;;;;;;5072393;28;20168;-50
2021/07/01 09:09:37;;;;;;;1999.90;999.90;;;15.00;99.90;;;;;;5072656;28;20663;-45
2021/07/01 09:12:07;;;;;;;1999.90;999.90;;;15.00;99.90;;;;;;5072145;28;20638;-47
2021/07/01 09:14:36;;;;;;;1999.90;999.90;;;15.00;99.90;;;;;;5071980;28;20173;-45
2021/07/01 09:17:11;;;;;;;1999.90;999.90;;;15.10;99.90;;;;;;5072552;28;20194;-47
2021/07/01 09:19:39;;;;;;;1999.90;999.90;;;15.30;99.90;;;;;;5072183;28;20182;-53
2021/07/01 09:22:15;;;;;;;1999.90;999.90;;;15.30;99.90;;;;;;5072428;28;20516;-51
2021/07/01 09:24:48;;;;;;;1999.90;999.90;;;15.70;99.90;;;;;;5072247;28;20263;-49
2021/07/01 09:27:14;;;;;;;1999.90;999.90;;;15.80;99.90;;;;;;5071928;28;20522;-45
2021/07/01 09:29:44;;;;;;;1999.90;999.90;;;15.60;99.90;;;;;;5071873;28;20234;-53
2021/07/01 09:32:13;;;;;;;1999.90;999.90;;;15.50;99.90;;;;;;5072124;28;20175;-63
2021/07/01 09:34:42;;;;;;;1999.90;999.90;;;15.50;99.90;;;;;;5071320;28;20266;-54
2021/07/01 09:37:09;;;;;;;1999.90;999.90;;;15.60;99.90;;;;;;5072084;28;20204;-52
2021/07/01 09:39:37;;;;;;;1999.90;999.90;;;15.80;99.90;;;;;;5071768;28;20565;-49
2021/07/01 09:42:06;;;;;;;1999.90;999.90;;;16.20;99.90;;;;;;5071485;28;20180;-49
2021/07/01 09:44:35;;;;;;;1999.90;999.90;;;16.50;99.90;;;;;;5072274;28;20179;-60
2021/07/01 09:47:06;;;;;;;1999.90;999.90;;;16.80;99.90;;;;;;5071459;28;20176;-55
2021/07/01 09:49:39;;;;;;;1999.90;999.90;;;17.20;99.90;;;;;;5071681;28;20168;-54
2021/07/01 09:52:08;;;;;;;1999.90;999.90;;;17.70;99.90;;;;;;5071738;28;20168;-50
2021/07/01 09:54:38;;;;;;;1999.90;999.90;;;17.60;99.90;;;;;;5070673;28;20168;-57
2021/07/01 09:57:16;;;;;;;1999.90;999.90;;;17.30;99.90;;;;;;5071131;28;20231;-49
2021/07/01 09:59:47;;;;;;;1999.90;999.90;;;17.30;99.90;;;;;;5071831;28;20190;-51
2021/07/01 10:02:20;;;;;;;1999.90;999.90;;;17.10;99.90;;;;;;5071234;28;20195;-49
2021/07/01 10:04:47;;;;;;;1999.90;999.90;;;16.80;99.90;;;;;;5071485;28;20595;-57
2021/07/01 10:07:17;;;;;;;1999.90;999.90;;;16.70;99.90;;;;;;5071302;28;20310;-52
2021/07/01 10:09:46;;;;;;;1999.90;999.90;;;16.70;99.90;;;;;;5071117;28;20231;-51
2021/07/01 10:12:20;;;;;;;1999.90;999.90;;;16.90;99.90;;;;;;5071762;28;20200;-53
2021/07/01 10:14:49;;;;;;;1999.90;999.90;;;16.90;99.90;;;;;;5071240;28;20175;-54
2021/07/01 10:17:19;;;;;;;1999.90;999.90;;;16.90;99.90;;;;;;5071303;28;20231;-50
2021/07/01 10:19:46;;;;;;;1999.90;999.90;;;16.90;99.90;;;;;;5071628;28;20165;-51
2021/07/01 10:22:19;;;;;;;1999.90;999.90;;;16.90;99.90;;;;;;5070962;28;20165;-46
2021/07/01 10:24:54;;;;;;;1999.90;999.90;;;17.30;99.90;;;;;;5071128;28;20161;-53
2021/07/01 10:27:42;;;;;;;1999.90;999.90;;;17.30;99.90;;;;;;5071234;28;20635;-55
2021/07/01 10:30:25;;;;;;;1999.90;999.90;;;17.40;99.90;;;;;;5070943;28;20164;-50
2021/07/01 10:32:57;;;;;;;1999.90;999.90;;;17.50;99.90;;;;;;5071484;28;20564;-59
2021/07/01 10:35:39;;;;;;;1999.90;999.90;;;17.30;99.90;;;;;;5070903;28;20169;-49
2021/07/01 10:38:11;;;;;;;1999.90;999.90;;;17.20;99.90;;;;;;5071043;28;20210;-46
2021/07/01 10:40:50;;;;;;;1999.90;999.90;;;17.20;99.90;;;;;;5070964;28;20184;-51
2021/07/01 10:43:19;;;;;;;1999.90;999.90;;;17.20;99.90;;;;;;5070747;28;20192;-58
2021/07/01 10:45:54;;;;;;;1999.90;999.90;;;17.10;99.90;;;;;;5052896;28;20173;-65
2021/07/01 10:48:22;;;;;;;1999.90;999.90;;;17.60;99.90;;;;;;5070816;28;20616;-51
2021/07/01 10:50:51;;;;;;;1999.90;999.90;;;17.70;99.90;;;;;;5070334;28;20524;-50
2021/07/01 10:53:46;;;;;;;1999.90;999.90;;;17.20;99.90;;;;;;5070905;28;20259;-54
2021/07/01 10:56:24;;;;;;;1999.90;999.90;;;16.90;99.90;;;;;;5068005;28;20600;-54
2021/07/01 10:58:56;;;;;;;1999.90;999.90;;;16.60;99.90;;;;;;5070807;28;20239;-53
2021/07/01 11:01:30;;;;;;;1999.90;999.90;;;16.30;99.90;;;;;;5071129;28;20574;-55
2021/07/01 11:04:23;;;;;;;1999.90;999.90;;;16.10;99.90;;;;;;5070649;28;20160;-52
2021/07/01 11:07:03;;;;;;;1999.90;999.90;;;15.70;99.90;;;;;;5070801;28;20187;-54
2021/07/01 11:09:44;;;;;;;1999.90;999.90;;;15.50;99.90;;;;;;5073757;28;20172;-51
2021/07/01 11:12:11;;;;;;;1999.90;999.90;;;15.50;99.90;;;;;;5075037;28;20155;-53
2021/07/01 11:14:43;;;;;;;1999.90;999.90;;;15.60;99.90;;;;;;5074951;28;20175;-50
2021/07/01 11:17:10;;;;;;;1999.90;999.90;;;15.60;99.90;;;;;;5074423;28;20200;-52
2021/07/01 11:19:44;;;;;;;1999.90;999.90;;;15.60;99.90;;;;;;5075009;28;20513;-56
2021/07/01 11:22:11;;;;;;;1999.90;999.90;;;15.80;99.90;;;;;;5074832;28;20180;-60
2021/07/01 11:24:43;;;;;;;1999.90;999.90;;;15.80;99.90;;;;;;5074741;28;20638;-46
2021/07/01 11:27:11;;;;;;;1999.90;999.90;;;16.00;99.90;;;;;;5074674;28;20164;-49
2021/07/01 11:29:46;;;;;;;1999.90;999.90;;;15.80;99.90;;;;;;5074614;28;20526;-49
2021/07/01 11:32:24;;;;;;;1999.90;999.90;;;15.90;99.90;;;;;;5074350;28;20160;-49
2021/07/01 11:34:53;;;;;;;1999.90;999.90;;;15.70;99.90;;;;;;5074665;28;20179;-59
2021/07/01 11:37:39;;;;;;;1999.90;999.90;;;15.70;99.90;;;;;;5074022;28;20210;-57
2021/07/01 11:40:19;;;;;;;1999.90;999.90;;;15.60;99.90;;;;;;5074370;28;20546;-47
2021/07/01 11:42:47;;;;;;;1999.90;999.90;;;15.80;99.90;;;;;;5074210;28;20552;-51
2021/07/01 11:45:14;;;;;;;1999.90;999.90;;;15.90;99.90;;;;;;5074174;28;20172;-48
2021/07/01 11:47:43;;;;;;;1999.90;999.90;;;16.10;99.90;;;;;;5074482;28;20452;-51
2021/07/01 11:50:11;;;;;;;1999.90;999.90;;;16.30;99.90;;;;;;5074296;28;20172;-49
2021/07/01 11:52:38;;;;;;;1999.90;999.90;;;16.40;99.90;;;;;;5073949;28;20594;-50
2021/07/01 11:55:05;;;;;;;1999.90;999.90;;;16.60;99.90;;;;;;5074380;28;20535;-52
2021/07/01 11:57:32;;;;;;;1999.90;999.90;;;16.70;99.90;;;;;;5073669;28;20212;-60
2021/07/01 11:59:59;;;;;;;1999.90;999.90;;;16.70;99.90;;;;;;5073615;28;20173;-60
2021/07/01 12:02:26;;;;;;;1999.90;999.90;;;16.60;99.90;;;;;;5072596;28;20180;-56
2021/07/01 12:04:53;;;;;;;1999.90;999.90;;;16.50;99.90;;;;;;5073487;28;20619;-52
2021/07/01 12:07:24;;;;;;;1999.90;999.90;;;16.30;99.90;;;;;;5073346;28;20168;-56
2021/07/01 12:09:52;;;;;;;1999.90;999.90;;;16.20;99.90;;;;;;5073748;28;20226;-57